Time;durP1;ratioP1;P1;durP2;ratioP2;P2;SDS_P1;SDS_P2;PMS_P1;PMS_P2;Temp;Humidity;BMP_temperature;BMP_pressure;BME280_temperature;BME280_humidity;BME280_pressure;Samples;Min_cycle;Max_cycle;Signal;HPM_P1;HPM_P2
2023/06/22 00:01:19;;;;;;;2.97;1.60;;;23.30;1.00;;;;;;5116245;28;20427;-55
2023/06/22 00:03:46;;;;;;;2.20;2.00;;;23.20;1.00;;;;;;5114411;28;20428;-55
2023/06/22 00:06:13;;;;;;;2.65;1.50;;;23.30;1.00;;;;;;5115041;28;20469;-55
2023/06/22 00:08:40;;;;;;;3.10;1.50;;;23.30;1.00;;;;;;5115998;28;20432;-56
2023/06/22 00:11:08;;;;;;;3.22;1.92;;;23.30;1.00;;;;;;5116138;28;20446;-55
2023/06/22 00:13:35;;;;;;;2.42;1.40;;;23.30;1.00;;;;;;5116125;28;20469;-54
2023/06/22 00:16:02;;;;;;;2.30;1.60;;;23.20;1.00;;;;;;5116072;28;20432;-54
2023/06/22 00:18:30;;;;;;;1.90;1.50;;;23.30;1.00;;;;;;5115887;28;20777;-54
2023/06/22 00:21:00;;;;;;;2.83;1.60;;;23.30;1.00;;;;;;5115993;28;20999;-55
2023/06/22 00:23:27;;;;;;;2.63;1.55;;;23.20;1.00;;;;;;5115078;28;20424;-55
2023/06/22 00:25:54;;;;;;;2.70;1.50;;;23.20;1.00;;;;;;5115670;28;20481;-55
2023/06/22 00:28:22;;;;;;;2.30;1.40;;;23.20;1.00;;;;;;5115661;28;20709;-57
2023/06/22 00:30:50;;;;;;;2.60;1.60;;;23.20;1.00;;;;;;5115358;28;20704;-56
2023/06/22 00:33:17;;;;;;;2.00;1.40;;;23.20;1.00;;;;;;5115818;28;20512;-57
2023/06/22 00:35:44;;;;;;;2.10;1.40;;;23.20;1.00;;;;;;5115941;28;20504;-54
2023/06/22 00:38:11;;;;;;;3.30;1.60;;;23.10;1.00;;;;;;5115422;28;20778;-55
2023/06/22 00:40:38;;;;;;;3.05;1.45;;;23.10;1.00;;;;;;5115128;28;20781;-56
2023/06/22 00:43:06;;;;;;;2.20;1.67;;;23.10;1.00;;;;;;5113895;28;20424;-55
2023/06/22 00:45:34;;;;;;;3.60;1.90;;;23.20;1.00;;;;;;5113482;28;20908;-56
2023/06/22 00:48:02;;;;;;;2.80;1.50;;;23.10;1.00;;;;;;5113983;28;20423;-56
2023/06/22 00:50:33;;;;;;;3.08;1.40;;;23.00;1.00;;;;;;5113807;28;20772;-56
2023/06/22 00:53:02;;;;;;;2.35;1.70;;;23.00;1.00;;;;;;5113953;28;20441;-55
2023/06/22 00:55:30;;;;;;;2.30;1.80;;;23.00;1.00;;;;;;5113423;28;20432;-56
2023/06/22 00:57:57;;;;;;;3.60;1.60;;;23.00;1.00;;;;;;5114604;28;20424;-55
2023/06/22 01:00:25;;;;;;;2.97;1.60;;;23.00;1.00;;;;;;5114418;28;20533;-56
2023/06/22 01:02:54;;;;;;;1.88;1.30;;;22.90;1.00;;;;;;5114868;28;20843;-55
2023/06/22 01:05:22;;;;;;;2.40;1.65;;;23.00;1.00;;;;;;5115335;28;20698;-56
2023/06/22 01:08:07;;;;;;;2.80;1.70;;;23.00;1.00;;;;;;5115626;28;20468;-54
2023/06/22 01:10:41;;;;;;;1.98;1.60;;;23.00;1.00;;;;;;5112910;28;20436;-53
2023/06/22 01:13:14;;;;;;;1.70;1.20;;;22.90;1.00;;;;;;5113685;28;20513;-54
2023/06/22 01:15:49;;;;;;;2.58;1.60;;;22.90;1.00;;;;;;5115229;28;20522;-53
2023/06/22 01:18:19;;;;;;;2.78;1.85;;;23.00;1.00;;;;;;5114649;28;20427;-56
2023/06/22 01:20:47;;;;;;;2.15;1.45;;;23.00;1.00;;;;;;5114010;28;20477;-57
2023/06/22 01:23:30;;;;;;;2.60;1.60;;;22.90;1.00;;;;;;5115281;28;20766;-53
2023/06/22 01:26:06;;;;;;;1.63;1.40;;;22.90;1.00;;;;;;5115173;28;20900;-53
2023/06/22 01:28:46;;;;;;;2.03;1.50;;;22.90;1.00;;;;;;5114965;28;20468;-56
2023/06/22 01:31:16;;;;;;;2.40;1.30;;;22.90;1.00;;;;;;5114874;28;20494;-56
2023/06/22 01:33:46;;;;;;;2.70;1.40;;;22.90;1.00;;;;;;5114586;28;20432;-56
2023/06/22 01:36:15;;;;;;;4.28;1.60;;;22.80;1.00;;;;;;5117863;28;20839;-55
2023/06/22 01:38:44;;;;;;;3.08;1.60;;;22.80;1.00;;;;;;5118268;28;20431;-57
2023/06/22 01:41:12;;;;;;;2.53;1.73;;;22.70;1.00;;;;;;5118334;28;20460;-56
2023/06/22 01:43:41;;;;;;;2.38;1.70;;;22.70;1.00;;;;;;5118393;28;20447;-55
2023/06/22 01:46:09;;;;;;;3.22;1.50;;;22.50;1.00;;;;;;5118037;28;20428;-58
2023/06/22 01:48:36;;;;;;;3.30;2.00;;;22.30;1.00;;;;;;5116615;28;20431;-56
2023/06/22 01:51:04;;;;;;;2.13;1.73;;;22.10;5.80;;;;;;5116694;28;20728;-52
2023/06/22 01:53:31;;;;;;;2.50;1.60;;;22.10;15.90;;;;;;5116349;28;20424;-53
2023/06/22 01:55:58;;;;;;;2.53;1.70;;;22.10;17.60;;;;;;5117272;28;20488;-52
2023/06/22 01:58:27;;;;;;;2.10;1.60;;;22.00;23.60;;;;;;5116583;28;20504;-54
2023/06/22 02:01:03;;;;;;;2.42;1.60;;;22.00;23.20;;;;;;5116692;28;20843;-55
2023/06/22 02:03:33;;;;;;;2.33;1.58;;;22.20;15.00;;;;;;5117910;28;20450;-54
2023/06/22 02:06:06;;;;;;;2.60;1.50;;;22.20;5.40;;;;;;5116906;28;20424;-51
2023/06/22 02:08:38;;;;;;;3.30;2.00;;;22.30;1.00;;;;;;5117792;28;20428;-54
2023/06/22 02:11:07;;;;;;;2.40;1.50;;;22.30;1.00;;;;;;5118076;28;20472;-55
2023/06/22 02:13:34;;;;;;;4.80;1.70;;;22.30;1.00;;;;;;5118331;28;20482;-54
2023/06/22 02:16:04;;;;;;;3.90;2.65;;;22.30;1.00;;;;;;5118231;28;20489;-57
2023/06/22 02:18:31;;;;;;;2.50;1.60;;;22.30;1.00;;;;;;5118408;28;20423;-53
2023/06/22 02:20:59;;;;;;;3.40;2.20;;;22.30;1.00;;;;;;5117318;28;20839;-56
2023/06/22 02:23:26;;;;;;;2.25;1.90;;;22.30;1.00;;;;;;5117574;28;20518;-57
2023/06/22 02:25:53;;;;;;;1.90;1.50;;;22.30;1.00;;;;;;5118229;28;20480;-57
2023/06/22 02:28:20;;;;;;;2.80;1.65;;;22.30;1.00;;;;;;5117549;28;20477;-54
2023/06/22 02:30:47;;;;;;;3.53;2.03;;;22.20;1.00;;;;;;5117263;28;20738;-55
2023/06/22 02:33:15;;;;;;;2.90;1.50;;;22.20;1.00;;;;;;5116599;28;20432;-58
2023/06/22 02:35:45;;;;;;;1.90;1.55;;;22.10;7.10;;;;;;5116374;28;20432;-54
2023/06/22 02:38:12;;;;;;;2.30;1.70;;;22.10;17.00;;;;;;5117788;28;20424;-53
2023/06/22 02:40:39;;;;;;;2.20;1.50;;;22.10;15.30;;;;;;5116384;28;20422;-55
2023/06/22 02:43:06;;;;;;;2.42;1.52;;;22.10;17.50;;;;;;5117704;28;20840;-53
2023/06/22 02:45:33;;;;;;;3.00;2.20;;;22.10;20.70;;;;;;5116961;28;20417;-57
2023/06/22 02:48:00;;;;;;;5.82;2.50;;;22.10;18.40;;;;;;5116664;28;20427;-54
2023/06/22 02:50:28;;;;;;;3.53;2.45;;;22.00;19.20;;;;;;5117003;28;20485;-57
2023/06/22 02:52:55;;;;;;;3.13;1.83;;;21.90;25.30;;;;;;5117154;28;20432;-56
2023/06/22 02:55:23;;;;;;;3.63;1.80;;;22.00;30.00;;;;;;5116129;28;20498;-57
2023/06/22 02:57:52;;;;;;;3.75;1.95;;;21.90;23.80;;;;;;5117683;28;20424;-56
2023/06/22 03:00:21;;;;;;;2.65;2.30;;;21.90;25.60;;;;;;5117211;28;20504;-56
2023/06/22 03:02:49;;;;;;;3.10;2.60;;;21.80;31.40;;;;;;5117384;28;20432;-55
2023/06/22 03:05:18;;;;;;;2.90;2.20;;;21.80;35.90;;;;;;5116624;28;20746;-54
2023/06/22 03:07:46;;;;;;;3.38;2.65;;;21.80;39.20;;;;;;5115768;28;20473;-55
2023/06/22 03:10:15;;;;;;;4.33;2.57;;;21.70;40.20;;;;;;5115827;28;20435;-55
2023/06/22 03:12:43;;;;;;;3.28;2.10;;;21.70;45.50;;;;;;5116868;28;20484;-53
2023/06/22 03:15:12;;;;;;;2.45;1.83;;;21.70;51.20;;;;;;5115355;28;20455;-55
2023/06/22 03:17:39;;;;;;;3.00;1.95;;;21.80;46.40;;;;;;5115822;28;20482;-54
2023/06/22 03:20:10;;;;;;;3.50;2.50;;;21.80;42.20;;;;;;5115579;28;20420;-55
2023/06/22 03:22:37;;;;;;;3.38;2.47;;;21.70;47.00;;;;;;5115948;28;20816;-53
2023/06/22 03:25:10;;;;;;;2.90;2.10;;;21.50;57.90;;;;;;5115031;28;20427;-55
2023/06/22 03:27:37;;;;;;;3.30;1.87;;;21.40;72.80;;;;;;5112698;28;20895;-55
2023/06/22 03:30:05;;;;;;;4.80;2.03;;;21.40;73.90;;;;;;5111653;28;20493;-51
2023/06/22 03:32:32;;;;;;;3.20;2.20;;;21.50;72.80;;;;;;5110997;28;20839;-56
2023/06/22 03:34:59;;;;;;;2.30;1.55;;;21.40;68.90;;;;;;5112297;28;20416;-52
2023/06/22 03:37:26;;;;;;;3.70;2.10;;;21.60;59.80;;;;;;5110537;28;20414;-55
2023/06/22 03:39:54;;;;;;;2.65;1.77;;;21.60;52.50;;;;;;5112456;28;20481;-55
2023/06/22 03:42:22;;;;;;;1.93;1.40;;;21.60;52.20;;;;;;5114806;28;20773;-52
2023/06/22 03:44:49;;;;;;;3.10;2.00;;;21.60;49.10;;;;;;5115646;28;20584;-52
2023/06/22 03:47:16;;;;;;;3.17;2.00;;;21.50;52.30;;;;;;5113473;28;20420;-54
2023/06/22 03:49:43;;;;;;;3.40;2.30;;;21.40;65.30;;;;;;5114636;28;20416;-56
2023/06/22 03:52:10;;;;;;;2.92;1.80;;;21.30;74.30;;;;;;5115580;28;20851;-55
2023/06/22 03:54:38;;;;;;;4.07;2.00;;;21.40;75.50;;;;;;5115623;28;20428;-55
2023/06/22 03:57:05;;;;;;;2.45;1.83;;;21.50;54.90;;;;;;5114961;28;20432;-53
2023/06/22 03:59:34;;;;;;;3.03;1.90;;;21.60;48.70;;;;;;5114881;28;20426;-54
2023/06/22 04:02:01;;;;;;;5.30;2.20;;;21.60;37.10;;;;;;5114269;28;20416;-56
2023/06/22 04:04:28;;;;;;;3.25;1.80;;;21.50;36.50;;;;;;5113911;28;20427;-56
2023/06/22 04:06:55;;;;;;;2.10;1.40;;;21.40;50.40;;;;;;5114901;28;20551;-56
2023/06/22 04:09:22;;;;;;;3.35;1.90;;;21.50;54.90;;;;;;5114820;28;20428;-54
2023/06/22 04:11:49;;;;;;;2.95;1.50;;;21.60;48.40;;;;;;5112938;28;20428;-56
2023/06/22 04:14:16;;;;;;;2.45;1.50;;;21.60;35.70;;;;;;5111952;28;20489;-53
2023/06/22 04:16:45;;;;;;;3.28;2.08;;;21.70;28.80;;;;;;5112414;28;20500;-55
2023/06/22 04:19:17;;;;;;;3.85;2.20;;;21.70;27.00;;;;;;5111978;28;20435;-55
2023/06/22 04:21:45;;;;;;;3.50;2.17;;;21.70;29.60;;;;;;5112597;28;20470;-54
2023/06/22 04:24:12;;;;;;;3.53;1.80;;;21.60;32.40;;;;;;5112671;28;20431;-53
2023/06/22 04:26:41;;;;;;;4.70;2.13;;;21.60;37.70;;;;;;5112746;28;20428;-55
2023/06/22 04:29:08;;;;;;;4.00;2.40;;;21.50;36.20;;;;;;5113555;28;20419;-55
2023/06/22 04:31:36;;;;;;;3.60;1.90;;;21.60;38.20;;;;;;5112913;28;20795;-55
2023/06/22 04:34:06;;;;;;;3.60;1.80;;;21.60;35.90;;;;;;5113832;28;20858;-55
2023/06/22 04:36:37;;;;;;;3.67;1.90;;;21.60;34.70;;;;;;5115491;28;20875;-56
2023/06/22 04:39:06;;;;;;;2.65;2.03;;;21.50;34.10;;;;;;5114691;28;20888;-55
2023/06/22 04:41:41;;;;;;;2.50;2.20;;;21.60;34.90;;;;;;5114273;28;20447;-56
2023/06/22 04:44:09;;;;;;;3.20;1.98;;;21.70;37.50;;;;;;5113806;28;20728;-54
2023/06/22 04:46:37;;;;;;;4.57;1.90;;;21.80;24.80;;;;;;5114779;28;20510;-55
2023/06/22 04:49:10;;;;;;;5.20;2.40;;;21.80;19.90;;;;;;5112470;28;20432;-56
2023/06/22 04:51:40;;;;;;;2.60;1.80;;;21.80;17.90;;;;;;5114159;28;20583;-55
2023/06/22 04:54:07;;;;;;;2.90;2.30;;;21.80;17.10;;;;;;5114052;28;20510;-55
2023/06/22 04:56:34;;;;;;;4.95;2.72;;;21.80;17.40;;;;;;5113777;28;20685;-57
2023/06/22 04:59:02;;;;;;;3.28;1.95;;;21.80;20.20;;;;;;5113876;28;20431;-56
2023/06/22 05:01:30;;;;;;;3.45;2.00;;;21.80;27.80;;;;;;5114606;28;20463;-56
2023/06/22 05:04:00;;;;;;;3.08;1.85;;;21.80;26.70;;;;;;5114315;28;20432;-55
2023/06/22 05:06:29;;;;;;;3.90;1.92;;;21.80;23.90;;;;;;5113711;28;20431;-51
2023/06/22 05:08:58;;;;;;;2.42;2.08;;;21.80;25.90;;;;;;5113150;28;20478;-55
2023/06/22 05:11:26;;;;;;;3.30;2.50;;;21.80;28.60;;;;;;5117174;28;20512;-53
2023/06/22 05:13:53;;;;;;;3.53;2.00;;;21.70;24.60;;;;;;5117285;28;20704;-56
2023/06/22 05:16:23;;;;;;;3.88;2.20;;;21.70;30.70;;;;;;5116374;28;20428;-56
2023/06/22 05:18:52;;;;;;;4.10;2.40;;;21.80;27.10;;;;;;5117870;28;20907;-54
2023/06/22 05:21:19;;;;;;;2.95;1.83;;;21.80;11.20;;;;;;5119085;28;20431;-56
2023/06/22 05:23:47;;;;;;;3.33;2.00;;;21.80;10.60;;;;;;5130890;27;20518;-55
2023/06/22 05:26:14;;;;;;;3.80;1.80;;;21.90;2.80;;;;;;5128812;27;20426;-55
2023/06/22 05:28:41;;;;;;;3.70;1.90;;;22.00;3.90;;;;;;5128870;27;20419;-54
2023/06/22 05:31:08;;;;;;;4.03;1.70;;;22.20;1.00;;;;;;5125671;27;20414;-54
2023/06/22 05:33:35;;;;;;;4.22;1.88;;;22.20;1.00;;;;;;5128983;27;20480;-54
2023/06/22 05:36:03;;;;;;;3.80;2.25;;;22.20;1.00;;;;;;5120876;27;20428;-56
2023/06/22 05:38:29;;;;;;;3.38;2.10;;;22.30;1.00;;;;;;5132006;27;20425;-53
2023/06/22 05:40:58;;;;;;;2.77;2.30;;;22.20;1.00;;;;;;5121422;27;20478;-53
2023/06/22 05:43:25;;;;;;;2.85;1.85;;;22.20;1.00;;;;;;5129336;27;20414;-55
2023/06/22 05:45:52;;;;;;;2.60;1.90;;;22.10;1.00;;;;;;5124027;27;20420;-49
2023/06/22 05:48:19;;;;;;;3.58;1.70;;;22.20;1.00;;;;;;5131939;27;20894;-56
2023/06/22 05:50:46;;;;;;;3.08;2.03;;;22.30;1.00;;;;;;5118351;27;20425;-52
2023/06/22 05:53:13;;;;;;;4.40;2.00;;;22.60;1.00;;;;;;5128673;27;20833;-55
2023/06/22 05:55:40;;;;;;;2.67;1.70;;;22.70;1.00;;;;;;5126959;27;20426;-53
2023/06/22 05:58:09;;;;;;;2.92;1.73;;;22.80;1.00;;;;;;5122730;27;20428;-55
2023/06/22 06:00:36;;;;;;;2.85;1.45;;;22.90;1.00;;;;;;5132572;27;20426;-55
2023/06/22 06:03:04;;;;;;;2.97;1.55;;;22.90;1.00;;;;;;5119306;27;20650;-55
2023/06/22 06:05:31;;;;;;;2.22;1.50;;;22.90;1.00;;;;;;5125765;27;20476;-53
2023/06/22 06:07:58;;;;;;;2.72;1.45;;;22.90;1.00;;;;;;5113652;28;20859;-54
2023/06/22 06:10:25;;;;;;;2.85;1.50;;;22.70;1.00;;;;;;5129314;27;20478;-55
2023/06/22 06:12:52;;;;;;;2.40;1.40;;;22.70;1.00;;;;;;5116562;27;20437;-54
2023/06/22 06:15:20;;;;;;;3.33;1.73;;;22.80;1.00;;;;;;5126285;27;20877;-55
2023/06/22 06:17:48;;;;;;;3.10;1.60;;;22.90;1.00;;;;;;5125524;27;20437;-53
2023/06/22 06:20:15;;;;;;;2.30;1.83;;;22.90;1.00;;;;;;5134477;27;20426;-54
2023/06/22 06:22:43;;;;;;;3.63;1.40;;;22.90;1.00;;;;;;5121168;27;20825;-55
2023/06/22 06:25:15;;;;;;;3.10;1.40;;;23.00;1.00;;;;;;5128362;27;20518;-52
2023/06/22 06:27:43;;;;;;;2.95;1.33;;;22.90;1.00;;;;;;5126095;27;20421;-50
2023/06/22 06:30:12;;;;;;;2.53;1.45;;;23.00;1.00;;;;;;5118986;27;20522;-55
2023/06/22 06:32:41;;;;;;;2.63;1.20;;;23.10;1.00;;;;;;5130328;27;20700;-55
2023/06/22 06:35:09;;;;;;;3.03;1.73;;;23.30;1.00;;;;;;5122296;27;20456;-52
2023/06/22 06:37:39;;;;;;;5.60;1.40;;;23.40;1.00;;;;;;5123341;27;20848;-58
2023/06/22 06:40:08;;;;;;;1.92;1.30;;;23.50;1.00;;;;;;5130102;27;20414;-56
2023/06/22 06:42:37;;;;;;;1.65;1.15;;;23.70;99.90;;;;;;5115912;27;20456;-57
2023/06/22 06:45:05;;;;;;;2.20;1.40;;;23.80;99.90;;;;;;5126682;27;20434;-57
2023/06/22 06:47:32;;;;;;;2.65;1.20;;;24.00;99.90;;;;;;5120254;27;20422;-57
2023/06/22 06:50:00;;;;;;;3.10;1.40;;;24.00;99.90;;;;;;5116926;27;20420;-57
2023/06/22 06:52:27;;;;;;;1.92;1.35;;;24.20;99.90;;;;;;5127545;27;20418;-58
2023/06/22 06:54:54;;;;;;;2.30;1.20;;;24.10;99.90;;;;;;5129759;27;20427;-57
2023/06/22 06:57:22;;;;;;;3.08;1.20;;;24.20;99.90;;;;;;5132503;27;20875;-60
2023/06/22 06:59:49;;;;;;;2.93;1.33;;;24.20;99.90;;;;;;5132675;27;20721;-61
2023/06/22 07:02:16;;;;;;;1.60;1.20;;;24.20;99.90;;;;;;5133092;27;20914;-57
2023/06/22 07:04:43;;;;;;;1.83;1.20;;;24.30;99.90;;;;;;5135297;27;20440;-58
2023/06/22 07:07:12;;;;;;;1.80;1.20;;;24.30;99.90;;;;;;5133314;27;20437;-56
2023/06/22 07:09:39;;;;;;;2.20;1.20;;;24.20;99.90;;;;;;5132399;27;20491;-61
2023/06/22 07:12:07;;;;;;;2.42;1.20;;;24.20;99.90;;;;;;5130264;27;20426;-55
2023/06/22 07:14:34;;;;;;;2.72;1.40;;;24.30;99.90;;;;;;5131805;27;20572;-57
2023/06/22 07:17:01;;;;;;;2.10;1.60;;;24.30;99.90;;;;;;5131658;27;20426;-55
2023/06/22 07:19:28;;;;;;;3.70;1.60;;;24.40;99.90;;;;;;5133241;27;20418;-56
2023/06/22 07:21:55;;;;;;;3.17;1.50;;;24.60;99.90;;;;;;5133954;27;20434;-56
2023/06/22 07:24:25;;;;;;;2.42;1.23;;;24.70;99.90;;;;;;5134561;27;20480;-56
2023/06/22 07:26:52;;;;;;;2.53;1.20;;;24.70;99.90;;;;;;5132054;27;20422;-56
2023/06/22 07:29:20;;;;;;;2.42;1.30;;;24.80;99.90;;;;;;5131086;27;20524;-57
2023/06/22 07:31:49;;;;;;;2.40;1.30;;;24.80;99.90;;;;;;5133656;27;20481;-56
2023/06/22 07:34:16;;;;;;;2.42;1.40;;;24.80;99.90;;;;;;5129913;27;20854;-57
2023/06/22 07:36:44;;;;;;;3.00;1.30;;;24.90;99.90;;;;;;5131047;27;20488;-57
2023/06/22 07:39:12;;;;;;;2.40;1.10;;;25.10;99.90;;;;;;5132552;27;20426;-57
2023/06/22 07:41:41;;;;;;;2.20;1.27;;;25.20;99.90;;;;;;5131420;27;20466;-56
2023/06/22 07:44:08;;;;;;;1.90;1.20;;;25.10;99.90;;;;;;5132401;27;20422;-58
2023/06/22 07:46:35;;;;;;;2.20;1.10;;;25.20;99.90;;;;;;5131514;27;20418;-58
2023/06/22 07:49:03;;;;;;;1.90;1.30;;;25.20;99.90;;;;;;5132189;27;20427;-56
2023/06/22 07:51:30;;;;;;;2.45;1.20;;;25.30;99.90;;;;;;5131799;27;20434;-56
2023/06/22 07:53:57;;;;;;;2.33;1.20;;;25.30;99.90;;;;;;5133932;27;20419;-55
2023/06/22 07:56:24;;;;;;;2.70;1.27;;;25.40;99.90;;;;;;5133009;27;20426;-56
2023/06/22 07:58:53;;;;;;;2.10;1.10;;;25.60;99.90;;;;;;5133946;27;20841;-56
2023/06/22 08:01:20;;;;;;;1.58;1.20;;;25.70;99.90;;;;;;5132545;27;20430;-55
2023/06/22 08:03:48;;;;;;;2.45;1.20;;;25.80;99.90;;;;;;5131811;27;20422;-56
2023/06/22 08:06:16;;;;;;;3.07;1.10;;;26.00;99.90;;;;;;5130669;27;20865;-56
2023/06/22 08:08:43;;;;;;;2.33;1.30;;;26.10;99.90;;;;;;5132434;27;20430;-57
2023/06/22 08:11:10;;;;;;;1.30;1.00;;;26.00;99.90;;;;;;5132551;27;20418;-57
2023/06/22 08:13:37;;;;;;;2.20;1.40;;;26.10;99.90;;;;;;5132356;27;20414;-56
2023/06/22 08:16:07;;;;;;;3.03;1.00;;;26.10;99.90;;;;;;5131487;27;20902;-57
2023/06/22 08:18:34;;;;;;;2.78;1.08;;;26.10;99.90;;;;;;5111024;28;20867;-56
2023/06/22 08:21:01;;;;;;;1.90;1.10;;;26.40;99.90;;;;;;5124417;27;20422;-57
2023/06/22 08:23:28;;;;;;;3.83;1.25;;;26.60;99.90;;;;;;5133647;27;20422;-55
2023/06/22 08:25:55;;;;;;;1.80;1.00;;;26.80;99.90;;;;;;5134553;27;20406;-56
2023/06/22 08:28:22;;;;;;;1.70;1.20;;;26.90;99.90;;;;;;5132783;27;20464;-57
2023/06/22 08:30:49;;;;;;;1.20;1.00;;;26.90;99.90;;;;;;5134541;27;20430;-56
2023/06/22 08:33:18;;;;;;;3.47;1.10;;;27.00;99.90;;;;;;5131980;27;20716;-54
2023/06/22 08:35:45;;;;;;;2.00;1.00;;;27.10;99.90;;;;;;5128418;27;20915;-56
2023/06/22 08:38:15;;;;;;;2.25;1.20;;;27.40;99.90;;;;;;5129266;27;20486;-56
2023/06/22 08:40:42;;;;;;;1.20;0.90;;;27.40;99.90;;;;;;5125994;27;20440;-56
2023/06/22 08:43:09;;;;;;;1.83;1.00;;;27.60;99.90;;;;;;5128831;27;20707;-56
2023/06/22 08:45:36;;;;;;;2.08;1.25;;;27.80;99.90;;;;;;5129343;27;20506;-56
2023/06/22 08:48:03;;;;;;;2.20;0.90;;;27.80;99.90;;;;;;5130102;27;20864;-56
2023/06/22 08:50:31;;;;;;;2.70;1.10;;;27.90;99.90;;;;;;5125178;27;20586;-53
2023/06/22 08:52:58;;;;;;;3.27;1.00;;;27.90;99.90;;;;;;5110898;28;20424;-58
2023/06/22 08:55:25;;;;;;;1.90;1.02;;;27.80;99.90;;;;;;5126721;27;20430;-54
2023/06/22 08:57:52;;;;;;;2.65;0.90;;;27.90;99.90;;;;;;5130611;27;20482;-57
2023/06/22 09:00:20;;;;;;;2.40;1.10;;;27.90;99.90;;;;;;5131908;28;20442;-57
2023/06/22 09:02:48;;;;;;;4.15;1.50;;;28.20;99.90;;;;;;5124915;28;20429;-57
2023/06/22 09:05:16;;;;;;;1.85;1.00;;;28.20;99.90;;;;;;5114576;28;20420;-57
2023/06/22 09:07:44;;;;;;;3.10;1.25;;;28.20;99.90;;;;;;5115862;27;20408;-57
2023/06/22 09:10:12;;;;;;;2.63;1.20;;;28.40;99.90;;;;;;5128803;28;20477;-57
2023/06/22 09:12:40;;;;;;;1.80;1.10;;;28.60;99.90;;;;;;5128325;28;20435;-59
2023/06/22 09:15:08;;;;;;;2.70;1.10;;;28.60;99.90;;;;;;5127251;28;20439;-56
2023/06/22 09:17:36;;;;;;;2.47;1.40;;;28.70;99.90;;;;;;5128383;27;20467;-57
2023/06/22 09:20:05;;;;;;;2.60;1.30;;;28.70;99.90;;;;;;5129707;27;20523;-57
2023/06/22 09:22:33;;;;;;;1.60;1.02;;;28.60;99.90;;;;;;5127572;28;20866;-58
2023/06/22 09:25:03;;;;;;;1.70;1.10;;;28.50;99.90;;;;;;5119478;27;20491;-57
2023/06/22 09:27:30;;;;;;;4.70;1.10;;;28.40;99.90;;;;;;5125075;27;20483;-55
2023/06/22 09:29:58;;;;;;;2.50;1.10;;;28.50;99.90;;;;;;5116540;27;20437;-58
2023/06/22 09:32:25;;;;;;;2.70;1.30;;;28.50;99.90;;;;;;5112051;28;20430;-57
2023/06/22 09:34:52;;;;;;;2.90;1.00;;;28.60;99.90;;;;;;5116193;27;20883;-59
2023/06/22 09:37:19;;;;;;;2.13;1.00;;;28.90;99.90;;;;;;5124100;27;20434;-59
2023/06/22 09:39:47;;;;;;;1.70;1.00;;;29.20;99.90;;;;;;5130120;27;20861;-59
2023/06/22 09:42:15;;;;;;;2.37;1.00;;;29.20;99.90;;;;;;5121384;28;20430;-57
2023/06/22 09:44:42;;;;;;;2.07;1.10;;;29.20;99.90;;;;;;5124875;28;20428;-58
2023/06/22 09:47:09;;;;;;;2.10;1.20;;;29.20;99.90;;;;;;5135877;27;20471;-58
2023/06/22 09:49:41;;;;;;;1.77;1.10;;;29.20;99.90;;;;;;5128761;28;20481;-58
2023/06/22 09:52:09;;;;;;;1.80;1.10;;;29.30;99.90;;;;;;5121466;28;20431;-58
2023/06/22 09:54:36;;;;;;;2.80;1.17;;;29.30;99.90;;;;;;5132881;28;20418;-58
2023/06/22 09:57:03;;;;;;;1.88;1.20;;;29.20;99.90;;;;;;5132599;27;20475;-58
2023/06/22 09:59:31;;;;;;;2.80;1.30;;;29.40;99.90;;;;;;5134667;27;20432;-61
2023/06/22 10:01:58;;;;;;;3.10;1.20;;;29.70;99.90;;;;;;5135251;27;20700;-60
2023/06/22 10:04:25;;;;;;;4.18;1.10;;;29.80;99.90;;;;;;5135893;27;20421;-60
2023/06/22 10:06:52;;;;;;;1.70;1.00;;;29.90;99.90;;;;;;5133850;27;20517;-61
2023/06/22 10:09:19;;;;;;;3.03;1.30;;;30.20;99.90;;;;;;5132400;27;20422;-60
2023/06/22 10:11:47;;;;;;;2.45;1.00;;;30.40;99.90;;;;;;5131717;27;20848;-61
2023/06/22 10:14:14;;;;;;;3.60;1.30;;;30.50;99.90;;;;;;5120126;27;20537;-61
2023/06/22 10:16:43;;;;;;;1.92;1.15;;;30.50;99.90;;;;;;5144164;27;20420;-61
2023/06/22 10:19:10;;;;;;;2.42;1.30;;;30.50;99.90;;;;;;5154575;27;20421;-60
2023/06/22 10:21:37;;;;;;;3.22;1.20;;;30.40;99.90;;;;;;5154241;27;20421;-60
2023/06/22 10:24:06;;;;;;;4.35;2.47;;;30.70;99.90;;;;;;5153265;27;20425;-61
2023/06/22 10:26:34;;;;;;;1.80;1.20;;;31.00;99.90;;;;;;5133266;27;20449;-61
2023/06/22 10:29:01;;;;;;;2.75;1.20;;;31.30;99.90;;;;;;5128600;27;20412;-61
2023/06/22 10:31:28;;;;;;;4.20;1.20;;;31.20;99.90;;;;;;5116358;28;20416;-61
2023/06/22 10:33:56;;;;;;;2.43;1.20;;;31.10;99.90;;;;;;5116188;27;20507;-60
2023/06/22 10:36:24;;;;;;;2.00;1.30;;;31.10;99.90;;;;;;5113334;28;20713;-60
2023/06/22 10:38:52;;;;;;;2.73;1.10;;;31.40;99.90;;;;;;5112478;28;20769;-61
2023/06/22 10:41:19;;;;;;;2.90;1.10;;;31.80;99.90;;;;;;5114316;28;20504;-61
2023/06/22 10:43:46;;;;;;;3.90;1.30;;;32.20;99.90;;;;;;5120177;27;20407;-62
2023/06/22 10:46:13;;;;;;;2.83;1.30;;;32.60;99.90;;;;;;5133465;27;20475;-61
2023/06/22 10:48:40;;;;;;;2.42;1.20;;;32.30;99.90;;;;;;5134579;27;20444;-62
2023/06/22 10:51:09;;;;;;;1.30;0.93;;;32.20;99.90;;;;;;5123812;27;20424;-61
2023/06/22 10:53:36;;;;;;;3.17;1.10;;;32.50;99.90;;;;;;5112671;28;20458;-61
2023/06/22 10:56:03;;;;;;;1.95;1.20;;;32.60;99.90;;;;;;5122954;27;20419;-61
2023/06/22 10:58:30;;;;;;;4.10;1.20;;;32.40;99.90;;;;;;5115703;27;20459;-61
2023/06/22 11:00:57;;;;;;;2.00;1.70;;;32.30;99.90;;;;;;5109387;28;20786;-61
2023/06/22 11:03:24;;;;;;;1.90;1.10;;;32.40;99.90;;;;;;5125243;27;20841;-61
2023/06/22 11:05:51;;;;;;;3.85;1.20;;;32.50;99.90;;;;;;5113413;28;20712;-61
2023/06/22 11:08:19;;;;;;;3.40;1.20;;;32.30;99.90;;;;;;5127320;27;20779;-61
2023/06/22 11:10:46;;;;;;;1.70;1.10;;;32.10;99.90;;;;;;5125944;27;20436;-61
2023/06/22 11:13:14;;;;;;;2.60;1.10;;;32.00;99.90;;;;;;5125126;27;20436;-61
2023/06/22 11:15:41;;;;;;;2.00;1.10;;;32.00;99.90;;;;;;5142946;27;20768;-60
2023/06/22 11:18:08;;;;;;;3.10;1.20;;;31.90;99.90;;;;;;5133665;27;20430;-61
2023/06/22 11:20:38;;;;;;;2.80;1.20;;;31.90;99.90;;;;;;5132563;27;20438;-61
2023/06/22 11:23:06;;;;;;;3.67;1.20;;;31.60;99.90;;;;;;5134629;27;20587;-61
2023/06/22 11:25:35;;;;;;;2.03;1.20;;;31.40;99.90;;;;;;5149051;27;20610;-61
2023/06/22 11:28:03;;;;;;;5.07;1.20;;;31.50;99.90;;;;;;5139090;27;20723;-61
2023/06/22 11:30:30;;;;;;;3.10;1.20;;;31.50;99.90;;;;;;5132247;27;20861;-61
2023/06/22 11:32:58;;;;;;;4.43;1.40;;;31.70;99.90;;;;;;5133228;27;20433;-60
2023/06/22 11:35:25;;;;;;;3.63;1.20;;;31.80;99.90;;;;;;5132155;27;20509;-61
2023/06/22 11:37:52;;;;;;;3.55;1.30;;;31.80;99.90;;;;;;5131688;27;20481;-61
2023/06/22 11:40:19;;;;;;;2.92;1.20;;;31.90;99.90;;;;;;5126477;27;20416;-61
2023/06/22 11:42:48;;;;;;;1.40;1.10;;;32.10;99.90;;;;;;5129327;27;20842;-61
2023/06/22 11:45:16;;;;;;;2.72;1.30;;;32.10;99.90;;;;;;5131687;27;20722;-61
2023/06/22 11:47:43;;;;;;;1.60;1.10;;;32.10;99.90;;;;;;5131186;27;20434;-61
2023/06/22 11:50:10;;;;;;;1.42;1.08;;;32.20;99.90;;;;;;5130324;27;20477;-61
2023/06/22 11:52:37;;;;;;;2.30;1.10;;;32.30;99.90;;;;;;5127077;27;20426;-61
2023/06/22 11:55:06;;;;;;;3.30;1.10;;;32.30;99.90;;;;;;5132223;27;20422;-60
2023/06/22 11:57:35;;;;;;;2.40;1.10;;;32.10;99.90;;;;;;5130947;27;20426;-61
2023/06/22 12:00:13;;;;;;;2.70;1.20;;;32.10;99.90;;;;;;5131798;27;20415;-62
2023/06/22 12:02:40;;;;;;;3.00;1.13;;;32.10;99.90;;;;;;5132881;27;20425;-61
2023/06/22 12:05:08;;;;;;;4.87;1.10;;;31.90;99.90;;;;;;5133545;27;20857;-62
2023/06/22 12:07:35;;;;;;;3.30;1.10;;;31.70;99.90;;;;;;5131236;27;20450;-65
2023/06/22 12:10:02;;;;;;;3.10;1.30;;;31.60;99.90;;;;;;5130945;27;21050;-65
2023/06/22 12:12:29;;;;;;;3.33;1.30;;;31.60;99.90;;;;;;5130509;27;20736;-66
2023/06/22 12:14:56;;;;;;;2.72;1.20;;;31.50;99.90;;;;;;5131740;27;20517;-67
2023/06/22 12:17:25;;;;;;;1.80;1.27;;;31.50;99.90;;;;;;5130446;27;20434;-65
2023/06/22 12:19:52;;;;;;;1.70;1.20;;;31.40;99.90;;;;;;5133604;27;20471;-66
2023/06/22 12:22:19;;;;;;;3.10;1.20;;;31.60;99.90;;;;;;5120234;27;20436;-66
2023/06/22 12:24:46;;;;;;;2.00;1.30;;;31.80;99.90;;;;;;5113516;28;20862;-66
2023/06/22 12:27:16;;;;;;;2.20;1.30;;;32.10;99.90;;;;;;5114250;28;20512;-66
2023/06/22 12:29:43;;;;;;;3.65;1.30;;;32.20;99.90;;;;;;5113409;28;20523;-66
2023/06/22 12:32:12;;;;;;;3.22;2.00;;;32.10;99.90;;;;;;5112083;28;20781;-66
2023/06/22 12:34:42;;;;;;;5.10;1.48;;;31.90;99.90;;;;;;5111255;28;21106;-66
2023/06/22 12:37:09;;;;;;;3.10;1.20;;;31.80;99.90;;;;;;5112862;28;20796;-65
2023/06/22 12:39:36;;;;;;;3.40;1.70;;;31.80;99.90;;;;;;5112744;28;20427;-67
2023/06/22 12:42:04;;;;;;;2.90;1.40;;;31.40;99.90;;;;;;5112688;28;20929;-65
2023/06/22 12:44:31;;;;;;;3.40;1.50;;;31.30;99.90;;;;;;5112118;28;20434;-67
2023/06/22 12:46:58;;;;;;;4.00;1.58;;;31.20;99.90;;;;;;5112472;28;20427;-67
2023/06/22 12:49:25;;;;;;;3.95;1.30;;;31.10;99.90;;;;;;5111032;28;20504;-65
2023/06/22 12:51:53;;;;;;;2.10;1.30;;;31.20;99.90;;;;;;5111019;28;20427;-66
2023/06/22 12:54:20;;;;;;;2.30;1.20;;;31.30;99.90;;;;;;5114093;28;20424;-66